Time;durP1;ratioP1;P1;durP2;ratioP2;P2;SDS_P1;SDS_P2;PMS_P1;PMS_P2;Temp;Humidity;BMP_temperature;BMP_pressure;BME280_temperature;BME280_humidity;BME280_pressure;Samples;Min_cycle;Max_cycle;Signal;HPM_P1;HPM_P2
2023/03/19 00:01:56;;;;;;;5.75;3.70;;;7.50;99.90;;;;;;5052533;28;20087;-63
2023/03/19 00:04:28;;;;;;;8.70;3.72;;;7.50;99.90;;;;;;5053443;28;20043;-63
2023/03/19 00:07:00;;;;;;;10.27;3.60;;;7.50;99.90;;;;;;5037687;28;20049;-63
2023/03/19 00:09:32;;;;;;;8.73;4.60;;;7.50;99.90;;;;;;5052363;28;20500;-63
2023/03/19 00:12:04;;;;;;;9.73;6.57;;;7.50;99.90;;;;;;5051798;28;20049;-63
2023/03/19 00:14:36;;;;;;;14.48;8.60;;;7.40;99.90;;;;;;5032320;28;20037;-63
2023/03/19 00:17:08;;;;;;;15.50;9.18;;;7.40;99.90;;;;;;5054026;28;20571;-62
2023/03/19 00:19:39;;;;;;;12.85;8.75;;;7.30;99.90;;;;;;5051177;28;20513;-63
2023/03/19 00:22:11;;;;;;;12.35;8.30;;;7.30;99.90;;;;;;5050898;28;20556;-62
2023/03/19 00:24:43;;;;;;;15.68;7.28;;;7.30;99.90;;;;;;5054270;28;20045;-62
2023/03/19 00:27:15;;;;;;;10.98;6.70;;;7.20;99.90;;;;;;5055650;28;20113;-62
2023/03/19 00:29:47;;;;;;;10.32;6.50;;;7.30;99.90;;;;;;5037295;28;20041;-63
2023/03/19 00:32:20;;;;;;;8.38;5.78;;;7.20;99.90;;;;;;5052539;28;20033;-62
2023/03/19 00:34:52;;;;;;;7.22;4.80;;;7.30;99.90;;;;;;5052503;28;20090;-63
2023/03/19 00:37:23;;;;;;;10.35;6.38;;;7.20;99.90;;;;;;5033311;28;20033;-62
2023/03/19 00:39:55;;;;;;;6.43;4.35;;;7.20;99.90;;;;;;5050900;28;20095;-62
2023/03/19 00:42:27;;;;;;;8.02;4.30;;;7.30;99.90;;;;;;5050268;28;20029;-62
2023/03/19 00:44:59;;;;;;;7.00;4.03;;;7.30;99.90;;;;;;5062816;28;20098;-62
2023/03/19 00:47:32;;;;;;;8.77;4.22;;;7.20;99.90;;;;;;5053137;28;20115;-63
2023/03/19 00:50:05;;;;;;;10.70;3.85;;;7.30;99.90;;;;;;5056107;28;20130;-63
2023/03/19 00:52:37;;;;;;;8.53;3.67;;;7.30;99.90;;;;;;5036492;28;20052;-63
2023/03/19 00:55:09;;;;;;;6.55;3.60;;;7.40;99.90;;;;;;5032318;28;20300;-63
2023/03/19 00:57:41;;;;;;;11.35;3.65;;;7.40;99.90;;;;;;5051955;28;20043;-63
2023/03/19 01:00:14;;;;;;;7.45;3.53;;;7.30;99.90;;;;;;5041973;28;20449;-63
2023/03/19 01:02:39;;;;;;;8.90;3.50;;;7.30;99.90;;;;;;5050434;28;20051;-62
2023/03/19 01:05:12;;;;;;;6.10;3.60;;;7.20;99.90;;;;;;5049203;28;20041;-62
2023/03/19 01:07:43;;;;;;;5.90;3.50;;;7.30;99.90;;;;;;5057039;28;20049;-63
2023/03/19 01:10:18;;;;;;;7.38;3.83;;;7.20;99.90;;;;;;5042329;28;20049;-63
2023/03/19 01:12:50;;;;;;;6.57;3.50;;;7.20;99.90;;;;;;5037260;28;20048;-63
2023/03/19 01:15:22;;;;;;;6.85;3.60;;;7.20;99.90;;;;;;5063502;28;20037;-63
2023/03/19 01:17:54;;;;;;;6.32;4.15;;;7.20;99.90;;;;;;5053266;28;20090;-63
2023/03/19 01:20:26;;;;;;;6.75;3.72;;;7.20;99.90;;;;;;5034910;28;20048;-63
2023/03/19 01:22:57;;;;;;;8.10;3.58;;;7.20;99.90;;;;;;5017580;28;20406;-63
2023/03/19 01:25:29;;;;;;;8.38;4.35;;;7.20;99.90;;;;;;5030986;28;20045;-63
2023/03/19 01:28:03;;;;;;;7.82;4.22;;;7.10;99.90;;;;;;5046110;28;20047;-63
2023/03/19 01:30:30;;;;;;;6.95;3.47;;;7.10;99.90;;;;;;5042441;28;20052;-63
2023/03/19 01:33:19;;;;;;;7.30;3.78;;;7.20;99.90;;;;;;5048471;28;20532;-62
2023/03/19 01:35:58;;;;;;;7.97;4.40;;;7.20;99.90;;;;;;5034635;28;20056;-63
2023/03/19 01:38:39;;;;;;;6.82;3.78;;;7.10;99.90;;;;;;5051414;28;20053;-63
2023/03/19 01:41:14;;;;;;;8.82;4.43;;;7.10;99.90;;;;;;5050285;28;20421;-63
2023/03/19 01:43:48;;;;;;;9.07;3.70;;;7.10;99.90;;;;;;5034981;28;20090;-63
2023/03/19 01:46:37;;;;;;;10.15;4.75;;;7.10;99.90;;;;;;5046680;28;20041;-62
2023/03/19 01:49:33;;;;;;;8.38;4.10;;;7.10;99.90;;;;;;5038234;28;20497;-62
2023/03/19 01:52:16;;;;;;;8.18;3.55;;;7.10;99.90;;;;;;5058563;28;20041;-62
2023/03/19 01:55:03;;;;;;;6.45;3.80;;;7.10;99.90;;;;;;5051487;28;20116;-63
2023/03/19 01:57:48;;;;;;;10.18;3.58;;;7.10;99.90;;;;;;5039958;28;20443;-62
2023/03/19 02:00:34;;;;;;;6.82;5.03;;;7.10;99.90;;;;;;5067533;28;20071;-63
2023/03/19 02:03:06;;;;;;;14.55;9.07;;;7.10;99.90;;;;;;5036348;28;20055;-63
2023/03/19 02:05:51;;;;;;;16.35;10.93;;;7.00;99.90;;;;;;5066721;28;20043;-63
2023/03/19 02:08:24;;;;;;;26.73;11.65;;;7.00;99.90;;;;;;5035433;28;20057;-63
2023/03/19 02:10:59;;;;;;;15.38;10.70;;;7.00;99.90;;;;;;5034623;28;20052;-63
2023/03/19 02:13:31;;;;;;;16.52;10.50;;;7.00;99.90;;;;;;5019939;28;20045;-63
2023/03/19 02:15:57;;;;;;;18.55;11.98;;;7.00;99.90;;;;;;5058861;28;20408;-63
2023/03/19 02:18:30;;;;;;;18.00;12.98;;;7.00;99.90;;;;;;5043478;28;20104;-62
2023/03/19 02:21:06;;;;;;;22.83;12.27;;;7.00;99.90;;;;;;5053430;28;20060;-63
2023/03/19 02:23:53;;;;;;;16.63;10.75;;;7.00;99.90;;;;;;5036644;28;20114;-63
2023/03/19 02:26:43;;;;;;;17.40;10.82;;;7.00;99.90;;;;;;5038263;28;20052;-63
2023/03/19 02:29:15;;;;;;;13.73;8.65;;;7.00;99.90;;;;;;5032453;28;20044;-63
2023/03/19 02:31:47;;;;;;;13.90;9.02;;;7.00;99.90;;;;;;5045400;28;20437;-62
2023/03/19 02:34:20;;;;;;;13.75;9.10;;;7.00;99.90;;;;;;5034519;28;20059;-63
2023/03/19 02:37:02;;;;;;;11.80;8.07;;;7.00;99.90;;;;;;5054169;28;20782;-63
2023/03/19 02:39:58;;;;;;;11.57;7.22;;;7.00;99.90;;;;;;5037180;28;20068;-63
2023/03/19 02:42:30;;;;;;;12.90;5.70;;;7.00;99.90;;;;;;5020778;28;20045;-63
2023/03/19 02:45:03;;;;;;;8.70;5.65;;;7.00;99.90;;;;;;5038697;28;20057;-62
2023/03/19 02:47:35;;;;;;;8.10;5.00;;;7.00;99.90;;;;;;5053291;28;20029;-62
2023/03/19 02:50:01;;;;;;;10.32;4.80;;;7.00;99.90;;;;;;5036563;28;20052;-63
2023/03/19 02:52:33;;;;;;;11.25;5.07;;;7.00;99.90;;;;;;5052930;28;20045;-63
2023/03/19 02:55:06;;;;;;;8.52;4.75;;;6.90;99.90;;;;;;5048257;28;20044;-62
2023/03/19 02:57:38;;;;;;;9.30;5.28;;;6.90;99.90;;;;;;5062171;28;20136;-63
2023/03/19 03:00:11;;;;;;;8.50;5.38;;;6.90;99.90;;;;;;5056242;28;20048;-63
2023/03/19 03:02:43;;;;;;;6.32;5.15;;;6.90;99.90;;;;;;5034118;28;20037;-63
2023/03/19 03:05:15;;;;;;;9.57;5.40;;;6.90;99.90;;;;;;5054059;28;20041;-62
2023/03/19 03:07:48;;;;;;;10.23;5.82;;;6.90;99.90;;;;;;5062174;28;20540;-62
2023/03/19 03:10:20;;;;;;;14.18;7.60;;;7.00;99.90;;;;;;5050712;28;20398;-63
2023/03/19 03:12:52;;;;;;;15.15;7.63;;;7.00;99.90;;;;;;5043077;28;20044;-63
2023/03/19 03:15:24;;;;;;;12.05;7.10;;;7.00;99.90;;;;;;5050976;28;20037;-62
2023/03/19 03:17:56;;;;;;;10.80;7.47;;;7.00;99.90;;;;;;5035390;28;20052;-62
2023/03/19 03:20:23;;;;;;;13.27;7.03;;;6.90;99.90;;;;;;5044902;28;20470;-63
2023/03/19 03:22:55;;;;;;;13.60;6.95;;;7.00;99.90;;;;;;5042345;28;20393;-63
2023/03/19 03:25:27;;;;;;;11.05;6.82;;;6.90;99.90;;;;;;5053428;28;20037;-64
2023/03/19 03:27:59;;;;;;;10.98;7.15;;;6.90;99.90;;;;;;5033195;28;20052;-63
2023/03/19 03:30:31;;;;;;;11.57;8.02;;;6.90;99.90;;;;;;5063764;28;20465;-63
2023/03/19 03:33:03;;;;;;;13.10;7.30;;;7.00;99.90;;;;;;5052056;28;20087;-63
2023/03/19 03:35:35;;;;;;;9.38;6.45;;;6.90;99.90;;;;;;5062775;28;20048;-62
2023/03/19 03:38:03;;;;;;;8.27;6.03;;;6.90;99.90;;;;;;5051501;28;20037;-63
2023/03/19 03:40:35;;;;;;;9.60;6.40;;;6.90;99.90;;;;;;5032547;28;20433;-63
2023/03/19 03:43:08;;;;;;;9.52;6.05;;;6.90;99.90;;;;;;5035757;28;20048;-63
2023/03/19 03:45:40;;;;;;;13.02;7.03;;;6.90;99.90;;;;;;5053175;28;20040;-62
2023/03/19 03:48:12;;;;;;;11.43;6.97;;;6.90;99.90;;;;;;5037267;28;20040;-62
2023/03/19 03:50:44;;;;;;;15.55;8.10;;;7.00;99.90;;;;;;5043989;28;20048;-63
2023/03/19 03:53:21;;;;;;;11.68;8.73;;;7.00;99.90;;;;;;5032980;28;20129;-63
2023/03/19 03:55:53;;;;;;;16.13;8.13;;;7.10;99.90;;;;;;5038285;28;20048;-63
2023/03/19 03:58:27;;;;;;;13.70;8.35;;;7.20;99.90;;;;;;5032876;28;20048;-63
2023/03/19 04:00:59;;;;;;;14.65;10.18;;;7.20;99.90;;;;;;5032291;28;20039;-63
2023/03/19 04:03:31;;;;;;;13.38;9.05;;;7.30;99.90;;;;;;5038233;28;20107;-63
2023/03/19 04:06:03;;;;;;;14.13;9.52;;;7.40;99.90;;;;;;5035639;28;20041;-63
2023/03/19 04:08:35;;;;;;;17.13;9.63;;;7.40;99.90;;;;;;5035854;28;20052;-63
2023/03/19 04:11:07;;;;;;;15.77;9.48;;;7.40;99.90;;;;;;5035933;28;20045;-63
2023/03/19 04:13:35;;;;;;;15.05;10.05;;;7.50;99.90;;;;;;5032458;28;20045;-62
2023/03/19 04:16:09;;;;;;;12.93;9.27;;;7.50;99.90;;;;;;5036032;28;20033;-63
2023/03/19 04:18:40;;;;;;;15.13;9.68;;;7.50;99.90;;;;;;5034191;28;20317;-63
2023/03/19 04:21:12;;;;;;;14.43;10.07;;;7.60;99.90;;;;;;5049845;28;20087;-63
2023/03/19 04:23:44;;;;;;;15.05;9.73;;;7.60;99.90;;;;;;5048660;28;20456;-62
2023/03/19 04:26:16;;;;;;;15.48;9.27;;;7.60;99.90;;;;;;5054485;28;20439;-63
2023/03/19 04:28:48;;;;;;;12.88;9.13;;;7.60;99.90;;;;;;5036950;28;20060;-62
2023/03/19 04:31:20;;;;;;;15.02;9.50;;;7.60;99.90;;;;;;5034566;28;20041;-63
2023/03/19 04:33:53;;;;;;;14.02;9.20;;;7.60;99.90;;;;;;5054656;28;20087;-63
2023/03/19 04:36:25;;;;;;;13.40;9.43;;;7.60;99.90;;;;;;5052296;28;20071;-63
2023/03/19 04:38:57;;;;;;;14.70;9.18;;;7.60;99.90;;;;;;5036044;28;20047;-63
2023/03/19 04:41:28;;;;;;;11.82;7.70;;;7.60;99.90;;;;;;5050570;28;20044;-62
2023/03/19 04:44:18;;;;;;;17.02;8.45;;;7.70;99.90;;;;;;5062325;28;20099;-63
2023/03/19 04:46:46;;;;;;;11.38;7.80;;;7.90;99.90;;;;;;5050363;28;20051;-63
2023/03/19 04:49:19;;;;;;;11.05;7.90;;;8.00;99.90;;;;;;5054647;28;20122;-63
2023/03/19 04:51:55;;;;;;;11.23;7.60;;;8.10;99.90;;;;;;5053133;28;20073;-63
2023/03/19 04:54:27;;;;;;;9.65;6.25;;;8.30;99.90;;;;;;5037073;28;20037;-63
2023/03/19 04:56:59;;;;;;;10.25;6.20;;;8.50;99.90;;;;;;5052725;28;20045;-63
2023/03/19 04:59:31;;;;;;;7.55;5.63;;;8.60;99.90;;;;;;5042766;28;20079;-63
2023/03/19 05:02:04;;;;;;;8.48;6.32;;;8.70;99.90;;;;;;5033242;28;20417;-63
2023/03/19 05:04:33;;;;;;;9.70;6.70;;;8.80;99.90;;;;;;5049907;28;20072;-63
2023/03/19 05:07:08;;;;;;;8.10;5.30;;;8.80;99.90;;;;;;5024397;28;20052;-63
2023/03/19 05:09:42;;;;;;;9.82;5.30;;;8.80;99.90;;;;;;5046319;28;20041;-63
2023/03/19 05:12:15;;;;;;;10.57;5.90;;;8.80;99.90;;;;;;5038184;28;20064;-63
2023/03/19 05:14:49;;;;;;;6.90;5.07;;;8.80;99.90;;;;;;5034802;28;20041;-63
2023/03/19 05:17:28;;;;;;;8.38;5.20;;;8.80;99.90;;;;;;5036641;28;20128;-63
2023/03/19 05:20:14;;;;;;;6.70;4.95;;;8.80;99.90;;;;;;5049349;28;20661;-63
2023/03/19 05:22:52;;;;;;;8.23;5.72;;;8.70;99.90;;;;;;5051699;28;20047;-62
2023/03/19 05:25:35;;;;;;;7.32;4.90;;;8.70;99.90;;;;;;5033526;28;20041;-63
2023/03/19 05:28:09;;;;;;;7.47;4.50;;;8.80;99.90;;;;;;5051714;28;20079;-63
2023/03/19 05:30:42;;;;;;;6.97;4.33;;;8.80;99.90;;;;;;5053405;28;20623;-63
2023/03/19 05:33:28;;;;;;;8.55;4.80;;;8.90;99.90;;;;;;5042345;28;20424;-63
2023/03/19 05:36:00;;;;;;;7.97;4.38;;;9.00;99.90;;;;;;5056975;28;20040;-63
2023/03/19 05:38:48;;;;;;;9.48;4.80;;;9.10;99.90;;;;;;5026980;28;20132;-62
2023/03/19 05:41:27;;;;;;;6.80;3.88;;;9.10;99.90;;;;;;5052221;28;20045;-63
2023/03/19 05:44:03;;;;;;;5.03;4.13;;;9.10;99.90;;;;;;5053183;28;20564;-63
2023/03/19 05:46:52;;;;;;;7.07;4.93;;;9.10;99.90;;;;;;5015582;28;20095;-62
2023/03/19 05:49:28;;;;;;;7.28;4.00;;;9.10;99.90;;;;;;5048689;28;20045;-63
2023/03/19 05:51:59;;;;;;;5.72;4.40;;;9.10;99.90;;;;;;5045243;28;20041;-63
2023/03/19 05:54:32;;;;;;;8.73;4.65;;;9.10;99.90;;;;;;5028729;28;20509;-63
2023/03/19 05:57:23;;;;;;;6.35;4.32;;;9.10;99.90;;;;;;5057698;28;20723;-63
2023/03/19 06:00:05;;;;;;;6.32;4.85;;;9.00;99.90;;;;;;5035891;28;20520;-62
2023/03/19 06:02:37;;;;;;;5.68;4.65;;;9.00;99.90;;;;;;5052999;28;20049;-63
2023/03/19 06:05:35;;;;;;;8.18;5.82;;;8.90;99.90;;;;;;5039152;28;20056;-62
2023/03/19 06:08:22;;;;;;;8.23;5.35;;;8.90;99.90;;;;;;5036496;28;20529;-63
2023/03/19 06:11:03;;;;;;;9.68;5.47;;;8.90;99.90;;;;;;5065918;28;20094;-63
2023/03/19 06:13:36;;;;;;;8.90;5.30;;;8.80;99.90;;;;;;5033092;28;20037;-63
2023/03/19 06:16:08;;;;;;;8.55;5.43;;;8.80;99.90;;;;;;5036394;28;20059;-63
2023/03/19 06:18:46;;;;;;;7.55;5.10;;;8.70;99.90;;;;;;5034517;28;20049;-63
2023/03/19 06:21:18;;;;;;;6.72;5.50;;;8.70;99.90;;;;;;5038097;28;20044;-63
2023/03/19 06:23:50;;;;;;;7.57;5.15;;;8.60;99.90;;;;;;5054151;28;20103;-63
2023/03/19 06:26:29;;;;;;;8.57;6.07;;;8.70;99.90;;;;;;5048913;28;20413;-63
2023/03/19 06:28:57;;;;;;;7.22;5.47;;;8.60;99.90;;;;;;5050221;28;20505;-63
2023/03/19 06:31:29;;;;;;;8.80;6.35;;;8.60;99.90;;;;;;5035264;28;20061;-64
2023/03/19 06:34:10;;;;;;;10.18;5.60;;;8.60;99.90;;;;;;5020094;28;20135;-63
2023/03/19 06:36:43;;;;;;;8.27;5.00;;;8.50;99.90;;;;;;5030017;28;20109;-64
2023/03/19 06:39:16;;;;;;;9.63;5.38;;;8.50;99.90;;;;;;5035151;28;20047;-63
2023/03/19 06:41:48;;;;;;;6.70;5.30;;;8.50;99.90;;;;;;5053409;28;20473;-64
2023/03/19 06:44:24;;;;;;;8.75;5.60;;;8.50;99.90;;;;;;5034682;28;20045;-64
2023/03/19 06:46:56;;;;;;;6.50;5.63;;;8.40;99.90;;;;;;5051886;28;20632;-64
2023/03/19 06:49:28;;;;;;;6.38;5.78;;;8.40;99.90;;;;;;5053394;28;20123;-63
2023/03/19 06:52:00;;;;;;;7.68;5.50;;;8.40;99.90;;;;;;5036760;28;20517;-64
2023/03/19 06:54:32;;;;;;;10.02;5.85;;;8.40;99.90;;;;;;5054100;28;20106;-64
2023/03/19 06:57:04;;;;;;;12.50;10.13;;;8.30;99.90;;;;;;5051954;28;20052;-63
2023/03/19 06:59:37;;;;;;;8.88;6.28;;;8.30;99.90;;;;;;5053601;28;20575;-64
2023/03/19 07:02:13;;;;;;;7.53;5.43;;;8.30;99.90;;;;;;5036693;28;20144;-63
2023/03/19 07:04:45;;;;;;;7.68;5.63;;;8.30;99.90;;;;;;5038104;28;20049;-63
2023/03/19 07:07:17;;;;;;;10.05;5.95;;;8.30;99.90;;;;;;5052156;28;20033;-63
2023/03/19 07:09:50;;;;;;;8.48;5.95;;;8.30;99.90;;;;;;5050492;28;20037;-63
2023/03/19 07:12:17;;;;;;;7.45;5.35;;;8.30;99.90;;;;;;5052248;28;20579;-63
2023/03/19 07:14:48;;;;;;;8.15;5.95;;;8.30;99.90;;;;;;5020375;28;20068;-63
2023/03/19 07:17:20;;;;;;;8.60;5.32;;;8.40;99.90;;;;;;5049409;28;20107;-64
2023/03/19 07:19:52;;;;;;;9.55;5.57;;;8.40;99.90;;;;;;5047750;28;20033;-63
2023/03/19 07:22:24;;;;;;;6.60;5.55;;;8.40;99.90;;;;;;5027697;28;20041;-63
2023/03/19 07:24:56;;;;;;;7.13;5.82;;;8.40;99.90;;;;;;5049899;28;20048;-63
2023/03/19 07:27:27;;;;;;;7.63;5.95;;;8.40;99.90;;;;;;5050087;28;20051;-63
2023/03/19 07:29:59;;;;;;;9.43;6.65;;;8.50;99.90;;;;;;5032476;28;20053;-63
2023/03/19 07:32:26;;;;;;;12.00;7.38;;;8.50;99.90;;;;;;5032315;28;20041;-63
2023/03/19 07:34:58;;;;;;;10.77;7.38;;;8.50;99.90;;;;;;5050343;28;20037;-63
2023/03/19 07:37:30;;;;;;;9.50;7.38;;;8.50;99.90;;;;;;5052569;28;20091;-63
2023/03/19 07:40:02;;;;;;;9.68;7.53;;;8.50;99.90;;;;;;5052643;28;20033;-63
2023/03/19 07:42:37;;;;;;;11.02;7.65;;;8.50;99.90;;;;;;5051431;28;20048;-64
2023/03/19 07:45:09;;;;;;;14.52;9.32;;;8.50;99.90;;;;;;5067378;28;20128;-63
2023/03/19 07:47:41;;;;;;;9.63;6.88;;;8.50;99.90;;;;;;5030719;28;20095;-63
2023/03/19 07:50:12;;;;;;;9.95;7.07;;;8.60;99.90;;;;;;5044285;28;20076;-63
2023/03/19 07:52:50;;;;;;;8.80;5.93;;;8.60;99.90;;;;;;5048643;28;20064;-63
2023/03/19 07:55:22;;;;;;;7.75;5.80;;;8.70;99.90;;;;;;5051445;28;20029;-63
2023/03/19 07:57:54;;;;;;;7.70;5.72;;;8.70;99.90;;;;;;5062646;28;20040;-63
2023/03/19 08:00:26;;;;;;;8.48;6.18;;;8.80;99.90;;;;;;5051805;28;20045;-63
2023/03/19 08:02:58;;;;;;;7.45;5.40;;;8.80;99.90;;;;;;5053992;28;20037;-63
2023/03/19 08:05:29;;;;;;;7.07;5.22;;;8.90;99.90;;;;;;5050937;28;20635;-63
2023/03/19 08:08:01;;;;;;;6.97;5.60;;;9.00;99.90;;;;;;5054794;28;20550;-64
2023/03/19 08:10:28;;;;;;;6.22;5.13;;;9.10;99.90;;;;;;5050228;28;20045;-63
2023/03/19 08:12:55;;;;;;;6.38;5.25;;;9.20;99.90;;;;;;5053068;28;20056;-63
2023/03/19 08:15:27;;;;;;;5.75;5.00;;;9.20;99.90;;;;;;5050876;28;20040;-63
2023/03/19 08:18:00;;;;;;;7.60;5.13;;;9.30;99.90;;;;;;5046934;28;20497;-63
2023/03/19 08:20:32;;;;;;;7.93;5.40;;;9.30;99.90;;;;;;5052008;28;20568;-63
2023/03/19 08:23:04;;;;;;;7.47;5.05;;;9.40;99.90;;;;;;5033858;28;20517;-63
2023/03/19 08:25:35;;;;;;;7.93;5.55;;;9.50;99.90;;;;;;5049729;28;20083;-63
2023/03/19 08:28:08;;;;;;;8.95;5.80;;;9.50;99.90;;;;;;5050218;28;20056;-64
2023/03/19 08:30:40;;;;;;;10.65;5.40;;;9.60;99.90;;;;;;5055364;28;20041;-63
2023/03/19 08:33:12;;;;;;;8.40;5.40;;;9.70;99.90;;;;;;5030260;28;20045;-63
2023/03/19 08:35:44;;;;;;;5.22;4.38;;;9.80;99.90;;;;;;5048807;28;20041;-63
2023/03/19 08:38:16;;;;;;;5.63;4.70;;;9.80;99.90;;;;;;5047604;28;20033;-64
2023/03/19 08:40:43;;;;;;;7.95;5.85;;;9.90;99.90;;;;;;5050596;28;20048;-63
2023/03/19 08:43:15;;;;;;;9.82;6.10;;;10.00;99.90;;;;;;5036588;28;20045;-63
2023/03/19 08:45:46;;;;;;;9.75;6.38;;;10.10;99.90;;;;;;5040982;28;20040;-63
2023/03/19 08:48:18;;;;;;;10.55;6.93;;;10.20;99.90;;;;;;5048691;28;20044;-63
2023/03/19 08:50:58;;;;;;;9.85;6.53;;;10.30;99.90;;;;;;5049171;28;20083;-63
2023/03/19 08:53:31;;;;;;;7.22;5.65;;;10.30;99.90;;;;;;5053956;28;20410;-63
2023/03/19 08:56:06;;;;;;;7.13;6.00;;;10.40;99.90;;;;;;5033147;28;20045;-63
2023/03/19 08:58:40;;;;;;;8.38;5.72;;;10.60;99.90;;;;;;5053600;28;20063;-64
2023/03/19 09:01:13;;;;;;;5.80;4.88;;;10.70;99.90;;;;;;5056953;28;20387;-64
2023/03/19 09:03:45;;;;;;;7.97;4.30;;;10.70;99.90;;;;;;5039289;28;20053;-63
2023/03/19 09:06:17;;;;;;;6.70;4.35;;;10.80;99.90;;;;;;5068318;28;20052;-64
2023/03/19 09:08:49;;;;;;;7.80;4.07;;;10.90;99.90;;;;;;5053355;28;20044;-64
2023/03/19 09:11:22;;;;;;;5.35;3.83;;;10.90;99.90;;;;;;5053784;28;20060;-63
2023/03/19 09:13:54;;;;;;;;;;;10.90;99.90;;;;;;5035887;28;20124;-63
2023/03/19 09:16:26;;;;;;;5.07;3.53;;;11.00;99.90;;;;;;5066036;28;19927;-63
2023/03/19 09:18:58;;;;;;;4.32;3.65;;;11.00;99.90;;;;;;5053786;28;20098;-64
2023/03/19 09:21:30;;;;;;;6.07;3.72;;;11.10;99.90;;;;;;5058454;28;20037;-63
2023/03/19 09:24:03;;;;;;;6.88;4.30;;;11.10;99.90;;;;;;5056145;28;20052;-63
2023/03/19 09:26:35;;;;;;;7.95;5.10;;;11.20;99.90;;;;;;5060299;28;20036;-63
2023/03/19 09:29:07;;;;;;;5.03;3.92;;;11.20;99.90;;;;;;5054601;28;20048;-63
2023/03/19 09:31:40;;;;;;;6.10;4.47;;;11.20;99.90;;;;;;5054390;28;20044;-63
2023/03/19 09:34:12;;;;;;;5.30;4.13;;;11.20;99.90;;;;;;5054553;28;20486;-63
2023/03/19 09:36:44;;;;;;;5.45;4.38;;;11.30;99.90;;;;;;5056424;28;20045;-63
2023/03/19 09:39:16;;;;;;;11.20;7.43;;;11.30;99.90;;;;;;5061059;28;20711;-63
2023/03/19 09:42:25;;;;;;;7.30;5.82;;;11.40;99.90;;;;;;5050139;28;20048;-63
2023/03/19 09:44:57;;;;;;;6.75;5.28;;;11.40;99.90;;;;;;5051350;28;20037;-63
2023/03/19 09:47:33;;;;;;;9.70;5.90;;;11.40;99.90;;;;;;5053591;28;20635;-63
2023/03/19 09:50:16;;;;;;;8.77;5.10;;;11.40;99.90;;;;;;5049800;28;20052;-63
2023/03/19 09:53:00;;;;;;;12.02;5.32;;;11.50;99.90;;;;;;5055865;28;20095;-64
2023/03/19 09:55:48;;;;;;;11.68;5.90;;;11.50;99.90;;;;;;5051429;28;20048;-63
2023/03/19 09:58:24;;;;;;;10.13;7.25;;;11.60;99.90;;;;;;5051962;28;20033;-63
2023/03/19 10:00:57;;;;;;;7.93;5.43;;;11.70;99.90;;;;;;5052528;28;20045;-64
2023/03/19 10:03:38;;;;;;;6.70;5.20;;;11.80;99.90;;;;;;5050078;28;20045;-63
2023/03/19 10:06:16;;;;;;;7.72;4.95;;;11.80;99.90;;;;;;5050255;28;20029;-63
2023/03/19 10:09:07;;;;;;;8.38;4.90;;;11.90;99.90;;;;;;5051686;28;20045;-63
2023/03/19 10:12:16;;;;;;;7.50;5.25;;;11.90;99.90;;;;;;5050559;28;20048;-64
2023/03/19 10:14:53;;;;;;;11.27;5.80;;;12.00;99.90;;;;;;5052805;28;20111;-63
2023/03/19 10:17:29;;;;;;;6.57;4.90;;;12.00;99.90;;;;;;5049458;28;20120;-63
2023/03/19 10:20:08;;;;;;;7.18;5.53;;;12.10;99.90;;;;;;5058980;28;20090;-63
2023/03/19 10:23:18;;;;;;;7.75;4.95;;;12.20;99.90;;;;;;5057341;28;20052;-63
2023/03/19 10:25:55;;;;;;;6.75;6.05;;;12.20;99.90;;;;;;5032058;28;20049;-64
2023/03/19 10:28:29;;;;;;;9.38;4.88;;;12.20;99.90;;;;;;5037948;28;20040;-63
2023/03/19 10:31:18;;;;;;;6.32;5.18;;;12.20;99.90;;;;;;5055113;28;20534;-63
2023/03/19 10:33:52;;;;;;;7.90;5.20;;;12.30;99.90;;;;;;5052707;28;20049;-63
2023/03/19 10:36:30;;;;;;;8.98;5.82;;;12.40;99.90;;;;;;5035160;28;20056;-63
2023/03/19 10:39:05;;;;;;;10.18;5.47;;;12.50;99.90;;;;;;5063158;28;20044;-64
2023/03/19 10:41:47;;;;;;;10.50;8.52;;;12.60;99.90;;;;;;5055052;28;20120;-63
2023/03/19 10:44:29;;;;;;;8.07;6.95;;;12.70;99.90;;;;;;5051466;28;20583;-63
2023/03/19 10:47:11;;;;;;;6.65;5.35;;;12.80;99.90;;;;;;5057490;28;20041;-64
2023/03/19 10:49:43;;;;;;;6.72;5.28;;;12.80;99.90;;;;;;5053230;28;20543;-64
2023/03/19 10:52:20;;;;;;;7.57;4.50;;;12.80;99.90;;;;;;5043246;28;20044;-63
2023/03/19 10:54:55;;;;;;;6.63;5.20;;;12.80;99.90;;;;;;5053216;28;20045;-63
2023/03/19 10:57:30;;;;;;;8.23;4.97;;;12.90;99.90;;;;;;5053183;28;20045;-63
2023/03/19 11:00:05;;;;;;;7.13;5.30;;;13.00;99.90;;;;;;5053826;28;20661;-63
2023/03/19 11:02:47;;;;;;;11.95;6.28;;;13.00;99.90;;;;;;5053464;28;20406;-63
2023/03/19 11:05:23;;;;;;;6.00;4.85;;;13.00;99.90;;;;;;5054413;28;20094;-63
2023/03/19 11:07:57;;;;;;;7.25;5.03;;;13.00;99.90;;;;;;5054304;28;20060;-63
2023/03/19 11:10:28;;;;;;;7.30;4.90;;;13.10;99.90;;;;;;5035566;28;20051;-64
2023/03/19 11:13:19;;;;;;;5.63;4.68;;;13.10;99.90;;;;;;5055122;28;20501;-63
2023/03/19 11:15:52;;;;;;;8.52;5.88;;;13.20;99.90;;;;;;5052240;28;20055;-63
2023/03/19 11:18:35;;;;;;;6.95;4.60;;;13.20;99.90;;;;;;5052487;28;20044;-63
2023/03/19 11:21:29;;;;;;;6.28;5.30;;;13.30;99.90;;;;;;5044485;28;20040;-63
2023/03/19 11:24:02;;;;;;;7.57;5.22;;;13.30;99.90;;;;;;5050686;28;20033;-63
2023/03/19 11:26:34;;;;;;;5.40;3.88;;;13.30;99.90;;;;;;5036625;28;20041;-63
2023/03/19 11:29:03;;;;;;;7.75;5.43;;;13.30;99.90;;;;;;5052816;28;20051;-63
2023/03/19 11:31:53;;;;;;;9.40;6.07;;;13.30;99.90;;;;;;5056595;28;20037;-64
2023/03/19 11:35:00;;;;;;;5.60;4.70;;;13.30;99.90;;;;;;5048314;28;20037;-63
2023/03/19 11:38:01;;;;;;;5.45;4.15;;;13.30;99.90;;;;;;5053899;28;20041;-63
2023/03/19 11:40:51;;;;;;;7.70;4.80;;;13.30;99.90;;;;;;5048186;28;20041;-63
2023/03/19 11:43:49;;;;;;;10.35;4.47;;;13.30;99.90;;;;;;5051106;28;20124;-63
2023/03/19 11:46:34;;;;;;;6.50;4.50;;;13.30;99.90;;;;;;5047283;28;20071;-63
2023/03/19 11:49:21;;;;;;;7.05;4.53;;;13.20;99.90;;;;;;5055901;28;20037;-63
2023/03/19 11:52:02;;;;;;;6.35;5.13;;;13.30;99.90;;;;;;5051053;28;20041;-63
2023/03/19 11:54:32;;;;;;;4.97;4.28;;;13.50;99.90;;;;;;5053951;28;20033;-64
2023/03/19 11:57:13;;;;;;;6.75;4.15;;;13.60;99.90;;;;;;5052758;28;20044;-63
2023/03/19 12:00:15;;;;;;;8.10;4.45;;;13.70;99.90;;;;;;5051729;28;20124;-64
2023/03/19 12:03:25;;;;;;;6.10;4.53;;;13.80;99.90;;;;;;5033186;28;20051;-63
2023/03/19 12:06:02;;;;;;;7.30;4.30;;;14.00;99.90;;;;;;5049412;28;20517;-63
2023/03/19 12:08:54;;;;;;;5.90;3.75;;;14.20;99.90;;;;;;5045803;28;20042;-63
2023/03/19 12:12:04;;;;;;;5.78;3.90;;;14.30;99.90;;;;;;5037320;28;20536;-63
2023/03/19 12:14:57;;;;;;;6.03;4.22;;;14.20;99.90;;;;;;5046487;28;20452;-63
2023/03/19 12:17:45;;;;;;;9.85;4.53;;;14.20;99.90;;;;;;5052576;28;20059;-64
2023/03/19 12:20:34;;;;;;;4.97;3.92;;;14.40;99.90;;;;;;5048278;28;20041;-63
2023/03/19 12:23:13;;;;;;;4.82;3.83;;;14.60;99.90;;;;;;5052362;28;20045;-63
2023/03/19 12:26:04;;;;;;;6.07;4.00;;;14.60;99.90;;;;;;5032232;28;20033;-63
2023/03/19 12:29:13;;;;;;;5.10;4.03;;;14.80;99.90;;;;;;5048937;28;20044;-63
2023/03/19 12:32:08;;;;;;;5.22;3.35;;;14.90;99.90;;;;;;5048740;28;20634;-63
2023/03/19 12:35:04;;;;;;;6.32;3.53;;;14.90;99.90;;;;;;5054274;28;20051;-63
2023/03/19 12:37:45;;;;;;;5.75;3.78;;;14.80;99.90;;;;;;5059562;28;20120;-63
2023/03/19 12:40:42;;;;;;;6.72;3.65;;;14.80;99.90;;;;;;5065013;28;20139;-63
2023/03/19 12:43:38;;;;;;;3.92;3.22;;;14.70;99.90;;;;;;5038813;28;20480;-63
2023/03/19 12:46:32;;;;;;;4.75;3.55;;;14.80;99.90;;;;;;5018716;28;20044;-64
2023/03/19 12:49:11;;;;;;;5.95;3.70;;;14.80;99.90;;;;;;5048608;28;20073;-63
2023/03/19 12:51:49;;;;;;;6.00;3.47;;;14.90;99.90;;;;;;5046482;28;20052;-63
2023/03/19 12:54:28;;;;;;;4.15;2.72;;;14.90;99.90;;;;;;5054941;28;20045;-64
2023/03/19 12:57:07;;;;;;;6.03;2.72;;;14.80;99.90;;;;;;5063607;28;20037;-63
2023/03/19 12:59:52;;;;;;;8.05;3.30;;;14.90;99.90;;;;;;5048884;28;20056;-64
2023/03/19 13:02:40;;;;;;;4.43;3.10;;;15.00;99.90;;;;;;5053171;28;20067;-63
2023/03/19 13:05:44;;;;;;;3.70;3.08;;;15.20;99.90;;;;;;5032523;28;20581;-63
2023/03/19 13:08:27;;;;;;;4.85;3.53;;;15.30;99.90;;;;;;5043701;28;20045;-65
2023/03/19 13:11:02;;;;;;;4.32;3.15;;;15.30;99.90;;;;;;5050381;28;20045;-63
2023/03/19 13:13:41;;;;;;;7.15;3.30;;;15.50;99.90;;;;;;5046146;28;20595;-63
2023/03/19 13:16:35;;;;;;;5.35;3.00;;;15.50;99.90;;;;;;5049761;28;20052;-64
2023/03/19 13:19:31;;;;;;;4.40;2.80;;;15.50;99.90;;;;;;5048074;28;20045;-63
2023/03/19 13:22:10;;;;;;;5.32;3.28;;;15.40;99.90;;;;;;5045368;28;20033;-63
2023/03/19 13:24:44;;;;;;;3.80;2.50;;;15.30;99.90;;;;;;5046896;28;20049;-63
2023/03/19 13:27:36;;;;;;;3.55;2.65;;;15.20;99.90;;;;;;5051523;28;20037;-63
2023/03/19 13:30:11;;;;;;;4.40;2.65;;;15.30;99.90;;;;;;5043252;28;20103;-63
2023/03/19 13:32:47;;;;;;;5.22;2.65;;;15.20;99.90;;;;;;5049923;28;20045;-63
2023/03/19 13:35:39;;;;;;;4.07;2.65;;;15.20;99.90;;;;;;5049742;28;20049;-63
2023/03/19 13:38:16;;;;;;;5.20;2.78;;;15.20;99.90;;;;;;5052077;28;20045;-63
2023/03/19 13:40:56;;;;;;;6.18;3.40;;;15.20;99.90;;;;;;5052484;28;20041;-63